Las Tablas, New Mexico
Current Conditions -  °F | °C
As of 2:35 AM on Friday 31 Oct 2014 (Local Time) from KSKX Reporting Station
Clear Clear  
Wind Chill: 32°   Ceiling: Unl
Heat Index: 36°   Visibility: 10mi
Dew Point: 16°   Wind: 5mph
Humidity: 44%   Direction: 50°NE
Pressure: 30.43"   Gusts: NA
Location:  36.6959°N, 106.135°W
Report Text: KSKX 310835Z AUTO 05004KT 10SM CLR 02/M09 A3043 RMK AO1
Loading
Personal Weather Stations






























Interactive Weather Map
Tropical Storm Tracking
New forecast layout! Learn more

10-Day Weather Forecast

Advertisements
Track Severe Weather on mobile